Aviation Digital Data Service (ADDS)

Output produced by METARs form (1154 UTC 11 December 2016)
found at http://aviationweather.gov/adds/metars/
 
KBUF 111124Z 1112/1212 20006KT 5SM -SHSN OVC025 
     FM111400 18005KT 6SM -SHSN OVC035 
     FM111800 18010KT 2SM -SN OVC025 
     FM120200 17010KT 1SM -SN OVC015 
     FM120900 23016G24KT 2SM -SNRA OVC007